Time;durP1;ratioP1;P1;durP2;ratioP2;P2;SDS_P1;SDS_P2;PMS_P1;PMS_P2;Temp;Humidity;BMP_temperature;BMP_pressure;BME280_temperature;BME280_humidity;BME280_pressure;Samples;Min_cycle;Max_cycle;Signal;HPM_P1;HPM_P2
2023/09/08 06:15:55;;;;;;;;;26.75;24.50;;;;;30.59;43.24;101172.69;5070799;27;45307;-70
2023/09/08 06:18:20;;;;;;;;;29.00;24.50;;;;;31.39;41.07;101161.66;5075875;27;45507;-76
2023/09/08 06:20:47;;;;;;;;;24.75;24.75;;;;;31.93;40.13;101167.53;5055562;28;45252;-71
2023/09/08 06:23:13;;;;;;;;;24.50;23.75;;;;;32.25;39.13;101166.13;5054388;28;45248;-69
2023/09/08 06:25:39;;;;;;;;;25.25;25.25;;;;;32.63;38.69;101172.19;5054864;28;46195;-70
2023/09/08 06:28:04;;;;;;;;;22.00;22.00;;;;;32.94;38.24;101174.50;5053881;28;45220;-71
2023/09/08 06:30:30;;;;;;;;;28.25;28.25;;;;;33.10;37.64;101165.81;5055271;28;45297;-70
2023/09/08 06:32:55;;;;;;;;;23.75;23.00;;;;;33.31;37.29;101171.28;5059138;28;45443;-70
2023/09/08 06:35:20;;;;;;;;;22.50;22.50;;;;;33.41;37.42;101168.13;5054937;28;45232;-69
2023/09/08 06:37:46;;;;;;;;;24.00;23.50;;;;;33.63;36.64;101169.66;5055361;28;45429;-71
2023/09/08 06:40:11;;;;;;;;;26.50;22.25;;;;;33.76;36.88;101169.75;5055063;28;45863;-70
2023/09/08 06:42:36;;;;;;;;;24.75;24.00;;;;;33.89;36.57;101177.22;5055107;28;45440;-70
2023/09/08 06:45:02;;;;;;;;;22.50;20.50;;;;;34.03;36.39;101180.84;5053866;28;46145;-70
2023/09/08 06:47:27;;;;;;;;;22.00;19.75;;;;;34.20;36.60;101184.94;5053413;28;45553;-70
2023/09/08 06:49:52;;;;;;;;;20.00;20.00;;;;;34.25;36.22;101181.56;5055052;28;45410;-71
2023/09/08 06:52:18;;;;;;;;;20.25;18.75;;;;;34.26;36.10;101172.13;5054149;28;45842;-70
2023/09/08 06:54:45;;;;;;;;;23.50;21.25;;;;;34.38;35.39;101187.09;5054799;28;46073;-70
2023/09/08 06:57:12;;;;;;;;;22.75;22.75;;;;;34.48;35.58;101177.25;5063750;28;45390;-69
2023/09/08 06:59:37;;;;;;;;;24.00;21.00;;;;;34.56;34.79;101184.50;5056051;27;45418;-69
2023/09/08 07:02:04;;;;;;;;;23.50;22.00;;;;;34.67;34.69;101186.63;5054680;28;45215;-70
2023/09/08 07:04:29;;;;;;;;;21.00;21.00;;;;;34.80;34.99;101181.06;5054490;28;46936;-68
2023/09/08 07:06:55;;;;;;;;;30.25;26.25;;;;;34.96;34.59;101195.59;5054643;28;45517;-69
2023/09/08 07:09:20;;;;;;;;;22.75;22.75;;;;;34.91;34.30;101183.16;5060072;28;45969;-71
2023/09/08 07:11:46;;;;;;;;;30.25;28.00;;;;;34.96;34.29;101190.03;5054974;28;45493;-70
2023/09/08 07:14:12;;;;;;;;;20.75;20.00;;;;;34.96;33.88;101190.88;5054272;27;46256;-70
2023/09/08 07:16:37;;;;;;;;;22.75;22.75;;;;;34.99;34.27;101189.56;5079394;27;45456;-70
2023/09/08 07:19:02;;;;;;;;;24.75;21.75;;;;;35.07;34.13;101190.19;5075323;27;45533;-69
2023/09/08 07:21:28;;;;;;;;;25.75;24.50;;;;;35.08;34.65;101194.69;5074141;28;45512;-70
2023/09/08 07:23:55;;;;;;;;;24.50;23.00;;;;;35.09;33.94;101185.25;5080082;27;45487;-68
2023/09/08 07:26:21;;;;;;;;;24.00;22.50;;;;;35.27;33.72;101193.78;5066068;28;45248;-68
2023/09/08 07:28:46;;;;;;;;;20.25;20.25;;;;;35.13;33.58;101199.63;5060477;28;45350;-67
2023/09/08 07:31:12;;;;;;;;;24.25;21.75;;;;;35.12;33.53;101201.56;5060939;28;45672;-68
2023/09/08 07:33:38;;;;;;;;;19.00;17.25;;;;;35.17;33.47;101196.16;5060774;28;45369;-69
2023/09/08 07:36:07;;;;;;;;;20.00;18.50;;;;;35.15;33.37;101189.94;5054690;28;45725;-71
2023/09/08 07:38:33;;;;;;;;;23.00;20.25;;;;;35.21;33.74;101200.22;5055672;28;45534;-71
2023/09/08 07:41:01;;;;;;;;;25.25;20.50;;;;;35.26;33.44;101194.88;5060141;28;45591;-69
2023/09/08 07:43:27;;;;;;;;;10.50;10.50;;;;;35.34;33.50;101190.09;5060122;28;45324;-71
2023/09/08 07:45:52;;;;;;;;;15.75;15.75;;;;;35.45;33.27;101189.41;5060841;28;45361;-72
2023/09/08 07:48:17;;;;;;;;;19.50;19.50;;;;;35.55;33.52;101196.22;5053351;28;45453;-73
2023/09/08 07:50:43;;;;;;;;;20.00;18.00;;;;;35.59;33.23;101197.47;5059615;28;45572;-74
2023/09/08 07:53:08;;;;;;;;;21.75;18.75;;;;;35.63;33.51;101200.69;5060366;28;46289;-70
2023/09/08 07:55:33;;;;;;;;;21.00;18.50;;;;;35.61;33.29;101197.25;5061158;28;45477;-71
2023/09/08 07:58:01;;;;;;;;;23.50;19.50;;;;;35.61;33.22;101200.91;5060511;28;45422;-70
2023/09/08 08:00:27;;;;;;;;;22.50;18.25;;;;;35.55;33.04;101190.66;5060843;28;45456;-70
2023/09/08 08:02:54;;;;;;;;;19.00;19.00;;;;;35.64;33.19;101197.66;5041279;28;48503;-69
2023/09/08 08:05:20;;;;;;;;;20.25;17.25;;;;;35.65;33.15;101204.09;5060544;28;45445;-69
2023/09/08 08:07:45;;;;;;;;;21.75;18.00;;;;;35.70;33.38;101201.50;5060297;28;45407;-69
2023/09/08 08:10:12;;;;;;;;;18.00;18.00;;;;;35.76;32.93;101202.56;5060232;28;45481;-69
2023/09/08 08:12:37;;;;;;;;;19.00;17.50;;;;;35.80;33.14;101187.09;5059892;28;45544;-70
2023/09/08 08:15:04;;;;;;;;;18.00;16.50;;;;;35.98;32.64;101190.78;5056063;28;45659;-70
2023/09/08 08:17:30;;;;;;;;;19.50;19.50;;;;;35.97;32.82;101185.47;5057183;28;45292;-70
2023/09/08 08:19:58;;;;;;;;;15.00;14.25;;;;;36.06;32.50;101184.09;5059223;28;45368;-68
2023/09/08 08:22:24;;;;;;;;;13.50;13.25;;;;;36.11;32.33;101180.63;5059912;28;45445;-70
2023/09/08 08:24:49;;;;;;;;;19.50;19.50;;;;;36.11;32.36;101194.56;5042163;28;45545;-69
2023/09/08 08:27:14;;;;;;;;;15.75;15.75;;;;;36.06;32.37;101200.84;5060207;28;45402;-68
2023/09/08 08:29:40;;;;;;;;;22.75;19.50;;;;;36.23;32.71;101202.03;5057703;28;46457;-70
2023/09/08 08:32:05;;;;;;;;;21.25;19.50;;;;;36.25;32.51;101205.44;5059751;28;45466;-70
2023/09/08 08:34:30;;;;;;;;;18.50;18.50;;;;;36.24;32.17;101209.28;5041887;28;45359;-70
2023/09/08 08:36:56;;;;;;;;;22.75;21.00;;;;;36.33;32.14;101207.94;5039459;28;46112;-67
2023/09/08 08:39:21;;;;;;;;;21.00;17.75;;;;;36.48;32.35;101215.13;5060100;28;45330;-72
2023/09/08 08:41:47;;;;;;;;;17.00;16.50;;;;;36.52;32.21;101220.00;5069686;28;45348;-69
2023/09/08 08:44:15;;;;;;;;;14.00;14.00;;;;;36.59;32.15;101212.41;5059131;28;45334;-68
2023/09/08 08:46:41;;;;;;;;;17.75;17.50;;;;;36.59;32.11;101212.41;5059707;28;45253;-70
2023/09/08 08:49:09;;;;;;;;;19.00;18.50;;;;;36.70;31.75;101216.44;5059247;28;45452;-71
2023/09/08 08:51:35;;;;;;;;;18.00;15.00;;;;;36.80;31.66;101219.56;5059738;28;45295;-69
2023/09/08 08:54:04;;;;;;;;;16.50;15.25;;;;;36.89;31.45;101218.16;5059623;28;45421;-69
2023/09/08 08:56:31;;;;;;;;;12.25;12.25;;;;;36.74;31.86;101214.91;5057190;28;45652;-69
2023/09/08 08:58:58;;;;;;;;;15.75;15.75;;;;;36.74;31.73;101210.16;5059356;28;45804;-68
2023/09/08 09:01:26;;;;;;;;;16.00;14.50;;;;;36.80;31.90;101218.69;5059645;28;46536;-69
2023/09/08 09:03:52;;;;;;;;;12.25;11.25;;;;;36.80;31.63;101216.75;5059574;28;45266;-68
2023/09/08 09:06:17;;;;;;;;;15.50;15.50;;;;;36.80;31.63;101222.34;5059691;28;45410;-68
2023/09/08 09:08:44;;;;;;;;;13.50;12.25;;;;;36.81;31.43;101218.47;5059337;28;45323;-69
2023/09/08 09:11:10;;;;;;;;;11.50;10.50;;;;;36.98;31.67;101218.72;5059413;28;45439;-69
2023/09/08 09:13:36;;;;;;;;;12.50;11.75;;;;;37.02;31.67;101219.94;5058941;28;45248;-69
2023/09/08 09:16:03;;;;;;;;;11.75;11.75;;;;;37.09;31.48;101220.75;5047855;28;45713;-69
2023/09/08 09:18:30;;;;;;;;;12.75;11.25;;;;;37.19;31.48;101221.06;5040032;28;45989;-69
2023/09/08 09:20:58;;;;;;;;;13.50;13.50;;;;;37.33;31.12;101208.63;5058972;28;45491;-69
2023/09/08 09:23:31;;;;;;;;;6.50;5.50;;;;;37.34;30.90;101203.91;5059263;28;45364;-69
2023/09/08 09:25:58;;;;;;;;;11.75;11.00;;;;;37.47;30.91;101212.94;5058713;28;45521;-70
2023/09/08 09:28:24;;;;;;;;;12.25;11.00;;;;;37.45;30.80;101211.47;5058726;28;45280;-71
2023/09/08 09:30:51;;;;;;;;;11.25;11.25;;;;;37.49;30.90;101213.56;5058485;28;46211;-70
2023/09/08 09:33:17;;;;;;;;;14.00;13.00;;;;;37.63;30.73;101210.63;5058598;28;45492;-69
2023/09/08 09:35:51;;;;;;;;;11.75;11.75;;;;;37.67;30.66;101211.84;5058642;28;45308;-68
2023/09/08 09:38:18;;;;;;;;;12.75;12.75;;;;;37.84;30.51;101208.16;5055922;28;45391;-70
2023/09/08 09:40:45;;;;;;;;;14.25;14.25;;;;;37.77;30.36;101201.78;5058327;28;46253;-69
2023/09/08 09:43:11;;;;;;;;;15.50;13.00;;;;;37.88;30.15;101208.50;5055097;28;45640;-69
2023/09/08 09:45:38;;;;;;;;;15.00;11.00;;;;;37.99;30.52;101212.44;5058807;28;45412;-69
2023/09/08 09:48:05;;;;;;;;;15.75;12.00;;;;;38.06;30.29;101211.28;5058907;28;45268;-69
2023/09/08 09:50:39;;;;;;;;;14.25;12.25;;;;;38.02;30.15;101196.03;5058437;28;46065;-67
2023/09/08 09:53:13;;;;;;;;;14.75;11.75;;;;;38.13;30.05;101199.94;5040868;28;45478;-67
2023/09/08 09:55:40;;;;;;;;;15.50;13.25;;;;;38.16;30.15;101193.88;5058895;28;45268;-68
2023/09/08 09:58:06;;;;;;;;;18.75;11.75;;;;;38.24;29.72;101204.72;5057911;28;45624;-68
2023/09/08 10:00:33;;;;;;;;;15.00;13.50;;;;;38.32;29.62;101201.56;5058305;28;45498;-67
2023/09/08 10:02:59;;;;;;;;;12.00;12.00;;;;;38.25;29.12;101203.63;5056978;28;45402;-68
2023/09/08 10:05:26;;;;;;;;;15.00;15.00;;;;;38.39;28.88;101201.44;5057016;28;45527;-68
2023/09/08 10:07:51;;;;;;;;;10.00;10.00;;;;;38.42;29.64;101187.81;5047799;28;45418;-68
2023/09/08 10:10:17;;;;;;;;;12.50;10.50;;;;;38.38;28.58;101205.34;5058482;28;45319;-69
2023/09/08 10:12:47;;;;;;;;;12.25;11.25;;;;;38.46;29.23;101197.44;5058422;28;45342;-68
2023/09/08 10:15:18;;;;;;;;;10.25;10.25;;;;;38.64;29.54;101198.44;5058331;28;45493;-69
2023/09/08 10:17:46;;;;;;;;;12.75;12.00;;;;;38.63;28.66;101197.56;5057889;28;45488;-69
2023/09/08 10:20:13;;;;;;;;;14.00;10.75;;;;;38.64;28.55;101193.69;5053218;28;45925;-68
2023/09/08 10:22:44;;;;;;;;;13.50;11.25;;;;;38.78;28.74;101206.38;5058208;28;45415;-71
2023/09/08 10:25:13;;;;;;;;;15.00;12.25;;;;;38.84;28.80;101196.09;5058871;28;45359;-69
2023/09/08 10:27:39;;;;;;;;;12.25;12.25;;;;;38.78;28.64;101195.16;5057821;28;45481;-71
2023/09/08 10:30:06;;;;;;;;;12.25;9.25;;;;;38.79;27.60;101207.22;5058302;28;46913;-69
2023/09/08 10:32:33;;;;;;;;;12.25;11.75;;;;;38.84;27.91;101207.31;5063470;28;45461;-59
2023/09/08 10:35:00;;;;;;;;;15.25;12.25;;;;;38.92;28.09;101205.00;5058361;28;45439;-60
2023/09/08 10:37:29;;;;;;;;;11.50;10.00;;;;;39.02;28.04;101204.41;5058419;28;45900;-59
2023/09/08 10:40:13;;;;;;;;;13.00;10.00;;;;;39.04;27.88;101205.03;5058286;28;46423;-59
2023/09/08 10:42:40;;;;;;;;;16.25;15.25;;;;;39.23;27.66;101208.47;5057872;28;45389;-58
2023/09/08 10:45:20;;;;;;;;;10.75;10.75;;;;;39.28;28.09;101209.47;5058525;28;45381;-59
2023/09/08 10:47:45;;;;;;;;;10.50;10.50;;;;;39.44;28.11;101207.00;5058181;28;45445;-59
2023/09/08 10:50:19;;;;;;;;;11.75;10.75;;;;;39.49;28.35;101204.28;5058113;28;46060;-60
2023/09/08 10:53:03;;;;;;;;;13.75;11.25;;;;;39.47;26.91;101198.94;5067279;28;45380;-59
2023/09/08 10:55:55;;;;;;;;;12.50;12.00;;;;;39.54;26.87;101184.75;5058025;28;45248;-61
2023/09/08 10:58:31;;;;;;;;;11.50;10.50;;;;;39.62;26.69;101195.56;5052204;28;46113;-59
2023/09/08 11:01:00;;;;;;;;;15.25;12.00;;;;;39.63;26.25;101189.72;5057403;28;46120;-59
2023/09/08 11:03:38;;;;;;;;;13.00;12.25;;;;;39.50;26.73;101177.94;5060948;28;45466;-60
2023/09/08 11:06:06;;;;;;;;;11.00;11.00;;;;;39.55;26.42;101187.31;5058953;28;45307;-60
2023/09/08 11:08:33;;;;;;;;;12.00;10.50;;;;;39.59;26.23;101177.28;5060909;28;48831;-61
2023/09/08 11:10:59;;;;;;;;;12.25;11.00;;;;;39.55;26.34;101175.25;5059972;28;45435;-61
2023/09/08 11:13:24;;;;;;;;;10.25;10.25;;;;;39.62;25.96;101182.41;5060100;28;45162;-60
2023/09/08 11:15:53;;;;;;;;;11.75;10.25;;;;;39.67;25.13;101185.28;5060967;28;45280;-60
2023/09/08 11:18:26;;;;;;;;;11.00;9.25;;;;;39.68;25.88;101181.38;5060319;28;45448;-60
2023/09/08 11:20:52;;;;;;;;;10.50;10.25;;;;;39.73;25.26;101172.19;5050455;28;46417;-60
2023/09/08 11:23:18;;;;;;;;;11.50;9.75;;;;;39.82;26.13;101165.09;5057684;28;45472;-61
2023/09/08 11:25:44;;;;;;;;;11.25;9.25;;;;;39.92;25.20;101170.03;5061354;28;45388;-59
2023/09/08 11:28:09;;;;;;;;;13.75;9.00;;;;;39.97;25.15;101171.00;5057563;28;45467;-60
2023/09/08 11:30:35;;;;;;;;;11.00;9.75;;;;;40.00;24.34;101166.81;5059652;28;47078;-60
2023/09/08 11:33:01;;;;;;;;;9.00;9.00;;;;;40.05;24.55;101173.38;5060290;28;45325;-60
2023/09/08 11:35:27;;;;;;;;;13.25;8.75;;;;;40.13;24.52;101165.63;5060214;28;45404;-60
2023/09/08 11:37:55;;;;;;;;;7.25;7.25;;;;;40.24;24.85;101173.13;5059126;28;45578;-60
2023/09/08 11:40:22;;;;;;;;;9.50;9.00;;;;;40.21;24.99;101165.22;5059877;28;45751;-61
2023/09/08 11:42:47;;;;;;;;;7.50;7.50;;;;;40.27;24.23;101175.44;5060000;28;45339;-60
2023/09/08 11:45:14;;;;;;;;;10.00;10.00;;;;;40.40;23.73;101173.16;5060597;28;46067;-59
2023/09/08 11:47:42;;;;;;;;;10.50;8.00;;;;;40.44;24.94;101151.00;5060550;28;45300;-60
2023/09/08 11:50:11;;;;;;;;;11.75;10.00;;;;;40.59;24.37;101164.41;5060524;28;47267;-59
2023/09/08 11:52:37;;;;;;;;;11.50;9.75;;;;;40.76;24.14;101168.91;5060417;28;45319;-60
2023/09/08 11:55:02;;;;;;;;;12.75;10.50;;;;;40.90;24.25;101163.78;5042352;28;45452;-59
2023/09/08 11:57:29;;;;;;;;;8.75;8.75;;;;;40.96;24.01;101159.91;5063876;28;45612;-60
2023/09/08 11:59:54;;;;;;;;;12.00;9.00;;;;;40.99;22.99;101167.00;5067741;28;46327;-60
2023/09/08 12:02:20;;;;;;;;;10.50;8.50;;;;;41.08;22.78;101169.09;5060364;28;45284;-60
2023/09/08 12:04:45;;;;;;;;;7.00;7.00;;;;;41.16;22.94;101156.56;5060771;28;45256;-59
2023/09/08 12:07:15;;;;;;;;;11.75;10.00;;;;;41.29;23.20;101163.72;5059689;28;45450;-61
2023/09/08 12:09:41;;;;;;;;;8.50;7.50;;;;;41.37;22.52;101150.03;5060564;28;46331;-61
2023/09/08 12:12:11;;;;;;;;;9.50;7.00;;;;;41.42;22.43;101152.91;5059985;28;45328;-59
2023/09/08 12:14:41;;;;;;;;;7.25;7.00;;;;;41.49;22.35;101142.28;5058414;28;45390;-60
2023/09/08 12:17:07;;;;;;;;;15.25;8.75;;;;;41.60;22.51;101148.06;5041745;28;45536;-60
2023/09/08 12:19:33;;;;;;;;;11.50;9.00;;;;;41.75;22.50;101149.06;5059694;28;46592;-60
2023/09/08 12:22:03;;;;;;;;;10.50;8.00;;;;;41.78;21.66;101148.50;5060116;28;45415;-61
2023/09/08 12:24:55;;;;;;;;;8.25;7.00;;;;;41.86;22.57;101148.03;5057971;28;45182;-59
2023/09/08 12:27:21;;;;;;;;;9.00;8.00;;;;;41.94;22.05;101129.81;5060749;28;45490;-59
2023/09/08 12:30:00;;;;;;;;;10.25;10.00;;;;;42.11;21.41;101135.31;5059301;28;47059;-59
2023/09/08 12:32:28;;;;;;;;;6.75;6.00;;;;;42.14;22.43;101132.81;5059858;28;45354;-58
2023/09/08 12:34:54;;;;;;;;;9.00;9.00;;;;;42.27;21.44;101129.53;5059473;28;45351;-60
2023/09/08 12:37:27;;;;;;;;;7.25;7.00;;;;;42.36;21.79;101129.06;5060032;28;45258;-59
2023/09/08 12:39:53;;;;;;;;;9.25;9.00;;;;;42.53;20.99;101135.38;5059848;28;46361;-60
2023/09/08 12:42:19;;;;;;;;;13.00;9.00;;;;;42.55;20.86;101130.28;5059324;28;45454;-61
2023/09/08 12:44:45;;;;;;;;;9.00;8.00;;;;;42.54;21.30;101123.78;5065339;28;45391;-59
2023/09/08 12:47:12;;;;;;;;;9.00;8.75;;;;;42.73;21.00;101129.81;5065195;28;45413;-61
2023/09/08 12:49:38;;;;;;;;;5.75;5.75;;;;;42.75;21.39;101136.06;5049435;28;47107;-61
2023/09/08 12:52:03;;;;;;;;;10.25;7.75;;;;;42.89;21.07;101131.63;5059746;28;45613;-60
2023/09/08 12:54:29;;;;;;;;;8.75;6.25;;;;;43.07;20.71;101127.47;5059776;28;45340;-59
2023/09/08 12:56:54;;;;;;;;;8.75;7.25;;;;;43.18;21.04;101128.38;5059419;28;45285;-61
2023/09/08 12:59:19;;;;;;;;;9.75;9.75;;;;;43.28;20.98;101125.59;5058874;28;58189;-60
2023/09/08 13:01:44;;;;;;;;;10.50;9.50;;;;;43.38;20.47;101109.53;5058531;28;45377;-60
2023/09/08 13:04:10;;;;;;;;;13.50;11.00;;;;;43.50;20.30;101119.69;5058837;28;45803;-61
2023/09/08 13:06:35;;;;;;;;;8.75;7.75;;;;;43.47;20.97;101114.63;5054458;28;57148;-61
2023/09/08 13:09:01;;;;;;;;;13.50;11.25;;;;;43.37;20.18;101110.66;5046448;28;62457;-61
2023/09/08 13:11:26;;;;;;;;;7.00;7.00;;;;;43.44;20.90;101087.78;5058605;28;45418;-59
2023/09/08 13:13:51;;;;;;;;;11.50;9.75;;;;;43.55;20.58;101102.81;5059013;28;45446;-61
2023/09/08 13:16:17;;;;;;;;;11.25;8.25;;;;;43.62;20.65;101098.56;5057104;28;45459;-61
2023/09/08 13:18:44;;;;;;;;;7.50;7.50;;;;;43.70;20.03;101091.53;5058195;28;51970;-60
2023/09/08 13:21:10;;;;;;;;;9.75;9.00;;;;;43.72;19.34;101089.28;5054280;28;45703;-61
2023/09/08 13:23:35;;;;;;;;;9.00;8.50;;;;;43.73;19.86;101099.41;5050646;28;45647;-61
2023/09/08 13:26:01;;;;;;;;;7.25;6.25;;;;;43.90;19.86;101093.50;5043207;28;45493;-61
2023/09/08 13:28:26;;;;;;;;;7.50;7.50;;;;;43.90;19.81;101085.03;5058814;28;46026;-60
2023/09/08 13:30:52;;;;;;;;;10.25;9.25;;;;;43.86;19.80;101084.72;5058692;28;54460;-59
2023/09/08 13:33:17;;;;;;;;;10.75;8.00;;;;;44.00;20.03;101079.38;5058804;28;45423;-60
2023/09/08 13:35:43;;;;;;;;;10.00;9.25;;;;;44.29;19.16;101071.13;5056082;28;45762;-59
2023/09/08 13:38:08;;;;;;;;;8.00;8.00;;;;;44.35;18.76;101073.69;5058644;28;45589;-62
2023/09/08 13:40:33;;;;;;;;;10.75;8.75;;;;;44.34;18.82;101071.13;5062081;28;54078;-60
2023/09/08 13:42:58;;;;;;;;;10.75;9.50;;;;;44.18;18.87;101075.09;5052523;28;45450;-61
2023/09/08 13:45:24;;;;;;;;;12.25;9.00;;;;;44.11;19.31;101073.44;5054248;28;47865;-59
2023/09/08 13:47:49;;;;;;;;;10.25;10.25;;;;;44.03;19.11;101073.16;5058879;28;46156;-61
2023/09/08 13:50:14;;;;;;;;;11.75;8.75;;;;;43.91;20.05;101064.94;5061492;28;45335;-60
2023/09/08 13:52:40;;;;;;;;;9.50;9.50;;;;;43.74;19.72;101059.59;5058970;28;45468;-60
2023/09/08 13:55:06;;;;;;;;;8.25;7.75;;;;;43.49;19.18;101059.53;5058916;28;45278;-61
2023/09/08 13:57:32;;;;;;;;;11.00;11.00;;;;;43.52;19.72;101064.66;5058423;28;45308;-61
2023/09/08 13:59:57;;;;;;;;;9.00;9.00;;;;;43.66;19.91;101060.16;5058777;28;45441;-60
2023/09/08 14:02:22;;;;;;;;;10.75;8.00;;;;;43.88;19.70;101056.19;5058422;28;47980;-60
2023/09/08 14:04:48;;;;;;;;;9.25;9.25;;;;;44.05;19.43;101049.16;5058856;28;45348;-59
2023/09/08 14:07:13;;;;;;;;;9.50;8.25;;;;;44.29;19.45;101057.84;5058394;28;49085;-59
2023/09/08 14:09:39;;;;;;;;;8.25;7.50;;;;;44.40;19.08;101044.56;5058844;28;45286;-60
2023/09/08 14:12:05;;;;;;;;;9.25;7.25;;;;;44.53;19.27;101043.94;5058404;28;45339;-60
2023/09/08 14:14:30;;;;;;;;;10.00;8.50;;;;;44.72;19.12;101044.19;5058496;28;45371;-60
2023/09/08 14:16:55;;;;;;;;;9.00;9.00;;;;;44.92;19.06;101052.53;5044947;28;45824;-59
2023/09/08 14:19:21;;;;;;;;;10.00;10.00;;;;;45.12;18.70;101043.97;5058222;28;54836;-60
2023/09/08 14:21:46;;;;;;;;;9.75;8.25;;;;;45.34;18.79;101040.72;5065773;28;53659;-60
2023/09/08 14:24:11;;;;;;;;;8.00;8.00;;;;;45.43;18.16;101046.59;5040002;28;45586;-61
2023/09/08 14:26:37;;;;;;;;;9.25;9.25;;;;;45.56;17.93;101048.78;5070835;28;46161;-60
2023/09/08 14:29:03;;;;;;;;;11.75;9.75;;;;;45.65;17.85;101051.81;5058279;28;45341;-60
2023/09/08 14:31:29;;;;;;;;;9.75;9.25;;;;;45.70;17.65;101038.44;5058474;28;45414;-61
2023/09/08 14:33:55;;;;;;;;;10.00;9.00;;;;;45.78;17.85;101039.78;5058439;28;45503;-62
2023/09/08 14:36:20;;;;;;;;;11.50;8.25;;;;;46.02;17.94;101046.41;5059717;28;45347;-61
2023/09/08 14:38:46;;;;;;;;;9.25;9.25;;;;;46.13;17.78;101047.13;5062132;28;45224;-60
2023/09/08 14:41:12;;;;;;;;;8.25;8.25;;;;;46.27;17.39;101045.31;5061882;28;45420;-61
2023/09/08 14:43:37;;;;;;;;;8.25;8.00;;;;;46.38;16.90;101034.66;5053958;28;45402;-59
2023/09/08 14:46:03;;;;;;;;;9.50;9.00;;;;;46.37;17.51;101036.66;5061749;28;46135;-60
2023/09/08 14:48:29;;;;;;;;;7.00;7.00;;;;;46.33;17.53;101041.25;5062054;28;45606;-63
2023/09/08 14:50:56;;;;;;;;;9.75;9.00;;;;;46.26;16.58;101033.13;5061922;28;45443;-59
2023/09/08 14:53:21;;;;;;;;;9.00;7.50;;;;;46.00;18.74;101034.50;5060415;28;47581;-60
2023/09/08 14:55:48;;;;;;;;;7.50;7.50;;;;;45.60;19.04;101024.34;5061446;28;45322;-59
2023/09/08 14:58:16;;;;;;;;;10.00;8.75;;;;;45.02;18.27;101027.00;5061514;28;45328;-60
2023/09/08 15:00:41;;;;;;;;;10.50;9.00;;;;;44.64;19.83;101037.09;5061650;28;45277;-60
2023/09/08 15:03:07;;;;;;;;;10.00;8.75;;;;;44.43;19.53;101033.50;5061590;28;45567;-59
2023/09/08 15:05:34;;;;;;;;;9.50;9.25;;;;;44.27;19.74;101031.84;5061602;28;45373;-58
2023/09/08 15:08:00;;;;;;;;;8.25;8.25;;;;;44.02;19.74;101032.75;5061527;28;45360;-59
2023/09/08 15:10:25;;;;;;;;;8.50;8.50;;;;;43.93;20.21;101027.94;5043473;28;45377;-59
2023/09/08 15:12:52;;;;;;;;;11.75;10.00;;;;;43.91;19.50;101021.72;5061058;28;45520;-58
2023/09/08 15:15:23;;;;;;;;;8.75;7.50;;;;;44.10;19.77;101011.53;5043158;28;47051;-59
2023/09/08 15:17:49;;;;;;;;;9.75;8.75;;;;;44.41;18.75;101015.97;5058835;28;45427;-60
2023/09/08 15:20:15;;;;;;;;;10.25;8.75;;;;;44.66;18.90;101017.03;5039963;28;45453;-59
2023/09/08 15:22:40;;;;;;;;;9.00;7.75;;;;;44.81;19.12;101020.66;5057229;28;55372;-61
2023/09/08 15:25:05;;;;;;;;;9.00;8.25;;;;;44.83;18.64;101003.38;5061384;28;45429;-59
2023/09/08 15:27:31;;;;;;;;;8.50;7.25;;;;;44.75;18.84;101018.97;5060800;28;45394;-59
2023/09/08 15:29:56;;;;;;;;;9.00;9.00;;;;;44.85;18.38;101012.41;5061507;28;45347;-59
2023/09/08 15:32:23;;;;;;;;;10.00;8.25;;;;;44.96;18.51;101002.72;5060850;28;56123;-59
2023/09/08 15:34:49;;;;;;;;;9.50;9.50;;;;;45.23;18.23;101013.59;5042488;28;46547;-59
2023/09/08 15:37:15;;;;;;;;;9.00;9.00;;;;;45.41;18.49;101018.56;5064888;28;45319;-60
2023/09/08 15:39:40;;;;;;;;;9.00;8.50;;;;;45.55;17.26;101011.09;5061164;28;45309;-59
2023/09/08 15:42:06;;;;;;;;;9.50;9.50;;;;;45.73;17.78;101011.50;5060823;28;45316;-59
2023/09/08 15:44:31;;;;;;;;;7.50;7.50;;;;;45.88;17.57;101002.88;5060708;28;46412;-58
2023/09/08 15:46:56;;;;;;;;;9.00;9.00;;;;;46.08;17.37;101001.81;5053829;28;45550;-58
2023/09/08 15:49:22;;;;;;;;;10.50;9.25;;;;;46.19;16.71;101007.09;5060977;28;45393;-59
2023/09/08 15:51:47;;;;;;;;;8.50;8.50;;;;;46.30;17.35;101002.16;5060677;28;49523;-59
2023/09/08 15:54:12;;;;;;;;;7.75;7.75;;;;;46.52;16.99;101001.59;5060667;28;46302;-59
2023/09/08 15:56:38;;;;;;;;;11.25;9.50;;;;;46.53;17.26;100992.78;5060713;28;45437;-59
2023/09/08 15:59:03;;;;;;;;;7.00;7.00;;;;;46.59;17.02;100991.56;5058745;28;49127;-59
2023/09/08 16:01:30;;;;;;;;;10.75;8.75;;;;;46.46;16.41;100965.91;5060352;28;46135;-58
2023/09/08 16:03:55;;;;;;;;;7.50;6.25;;;;;46.65;16.44;101001.72;5060124;28;46120;-59
2023/09/08 16:06:20;;;;;;;;;9.25;8.00;;;;;46.78;16.85;101005.81;5060152;28;46868;-58
2023/09/08 16:08:46;;;;;;;;;8.00;8.00;;;;;46.80;16.14;100992.13;5060751;28;45443;-58
2023/09/08 16:11:11;;;;;;;;;9.25;8.25;;;;;46.86;16.38;101002.28;5060715;28;45379;-68
2023/09/08 16:13:37;;;;;;;;;11.00;9.00;;;;;46.93;16.45;100999.06;5059691;28;45462;-68
2023/09/08 16:16:02;;;;;;;;;9.00;8.00;;;;;46.93;16.08;100994.22;5060151;28;48588;-67
2023/09/08 16:18:28;;;;;;;;;10.00;9.00;;;;;47.03;16.21;100999.78;5060527;28;45418;-68
2023/09/08 16:20:53;;;;;;;;;10.00;10.00;;;;;47.04;16.06;101003.47;5041945;28;46124;-68
2023/09/08 16:23:18;;;;;;;;;7.50;7.50;;;;;47.00;16.40;101002.38;5060339;28;46463;-68
2023/09/08 16:25:44;;;;;;;;;8.75;8.75;;;;;47.00;16.60;101000.41;5060644;28;45338;-67
2023/09/08 16:28:09;;;;;;;;;8.50;8.50;;;;;47.12;16.52;100997.09;5058483;28;45517;-67
2023/09/08 16:30:35;;;;;;;;;10.25;9.25;;;;;47.06;16.11;101001.16;5042324;28;45426;-66
2023/09/08 16:33:01;;;;;;;;;8.00;8.00;;;;;47.03;16.66;101001.78;5060094;28;46207;-67
2023/09/08 16:35:26;;;;;;;;;11.00;9.50;;;;;47.04;16.41;100994.97;5060358;28;45289;-68
2023/09/08 16:37:52;;;;;;;;;10.00;9.00;;;;;46.95;16.81;100994.78;5041927;28;45352;-67
2023/09/08 16:40:17;;;;;;;;;12.50;9.00;;;;;46.97;16.45;100991.59;5060183;28;45867;-67
2023/09/08 16:42:43;;;;;;;;;7.25;7.25;;;;;46.88;16.35;100993.44;5059269;28;45454;-67
2023/09/08 16:45:08;;;;;;;;;9.75;7.75;;;;;46.83;16.61;100999.19;5063073;28;45605;-70
2023/09/08 16:47:34;;;;;;;;;10.25;10.25;;;;;46.77;16.98;100998.44;5062874;28;45475;-68
2023/09/08 16:49:59;;;;;;;;;10.75;9.50;;;;;46.75;16.76;101006.41;5059891;28;45311;-67
2023/09/08 16:52:25;;;;;;;;;8.00;8.00;;;;;46.68;17.37;100998.28;5057821;28;45384;-68
2023/09/08 16:54:50;;;;;;;;;12.00;11.00;;;;;46.55;16.80;100983.94;5059455;28;45381;-68
2023/09/08 16:57:16;;;;;;;;;9.00;9.00;;;;;46.51;17.31;100986.56;5058080;28;45375;-68
2023/09/08 16:59:41;;;;;;;;;7.75;7.75;;;;;46.40;17.34;101004.00;5058243;28;45542;-66
2023/09/08 17:02:07;;;;;;;;;12.00;10.50;;;;;46.28;17.64;100998.78;5058112;28;47167;-66
2023/09/08 17:04:32;;;;;;;;;10.50;10.50;;;;;46.06;17.93;100996.44;5059588;28;45371;-67
2023/09/08 17:06:58;;;;;;;;;13.75;9.75;;;;;45.87;17.86;100978.50;5072169;28;45328;-66
2023/09/08 17:09:26;;;;;;;;;12.00;8.75;;;;;45.84;18.30;100996.94;5059199;28;45364;-68
2023/09/08 17:11:51;;;;;;;;;6.00;6.00;;;;;45.90;18.14;100990.09;5052547;28;45652;-64
2023/09/08 17:14:16;;;;;;;;;9.50;9.25;;;;;45.81;17.96;100991.03;5059467;28;45375;-65
2023/09/08 17:16:42;;;;;;;;;10.50;9.25;;;;;45.75;18.18;100987.41;5046523;28;45308;-64
2023/09/08 17:19:07;;;;;;;;;10.25;10.25;;;;;45.56;18.53;100992.97;5058930;28;45294;-65
2023/09/08 17:21:32;;;;;;;;;9.75;9.75;;;;;45.31;18.62;100986.66;5058360;28;52317;-65
2023/09/08 17:23:58;;;;;;;;;14.25;10.50;;;;;45.22;18.67;100990.13;5059772;28;45337;-65
2023/09/08 17:26:23;;;;;;;;;8.00;8.00;;;;;44.96;19.32;100994.22;5059810;28;45312;-64